الصفحة الرئيسية
صور السواتل توقعات الطقس لمدة 10 يوممناخالطقس البحري أعاصير برق مطارأسئلة وأجوبة الرسائل الإخبارية نبذة
طقس : أوروبا أفريقيا أمريكا الشمالية أمريكا الجنوبية آسيا أستراليا-أوقيانوسيا أخرى
لغات جهة اتصال

سكاكا, السعودية

مطار الجوف المحلي

دائرة عرض: 29-47N, خط طول: 040-06E, ارتفاع: 689 متر


METAR: OESK 022200Z 15007KT CAVOK 30/M02 Q1010 NOSIG
TAF: OESK 021030Z 0212/0318 12012KT CAVOK BECMG 0218/0220 VRB04KT

زمن: 02:06 (23:06 UTC)

مراقبة الطقس الحالي

تاريخ ووقت الإصدار 1ساعة و 6 دقيقة قبل الساعة 22:00UTC
ريح 7 عقدة من الجنوب/الجنوب الشرقي
درجة الحرارة 30°درجة مئوية
الرطوبة 12%
ضغط 1010 hPa
الرؤية 10 كم أو أكثر
الغيوم لا تقل 1500 م ولا وجود لمزنة ركامية السحاب الأسود

تغيير وحدة

توقعات

تاريخ ووقت الإصدار 12ساعات و 36 دقيقة قبل الساعة 10:30UTC
التوقعات صالحة من02 الساعة 12 UTC إلى 03 الساعة 18 UTC
ريح 12 عقدة من الشرق/الجنوب الشرقي
الرؤية 10 كم أو أكثر
الغيوم لا تقل 1500 م ولا وجود لمزنة ركامية السحاب الأسود
أصبح
من 02 الساعة 18 UTC إلى 02 الساعة 20 UTC
ريح 4 عقدةمن اتجاهات متغيرة
المعلومات الواردة في هذا الموقع يخضع لـإخلاء مسؤولية
طقس : أوروبا أفريقيا أمريكا الشمالية أمريكا الجنوبية آسيا أستراليا-أوقيانوسيا أخرى
صور السواتل توقعات الطقس لمدة 10 يوممناخالطقس البحري أعاصير برق مطارأسئلة وأجوبة لغات جهة اتصال الرسائل الإخبارية نبذة